createdAt,value
2023-01-22T00:03:55.053Z,8.35
2023-01-22T00:08:07.429Z,7.55
2023-01-22T00:12:19.753Z,6.30
2023-01-22T00:16:32.135Z,5.57
2023-01-22T00:20:48.731Z,7.82
2023-01-22T00:25:01.015Z,6.38
2023-01-22T00:29:13.548Z,7.28
2023-01-22T00:33:26.038Z,7.72
2023-01-22T00:37:38.549Z,8.75
2023-01-22T00:41:51.057Z,7.28
2023-01-22T00:46:03.450Z,7.90
2023-01-22T00:50:16.113Z,9.40
2023-01-22T00:54:30.141Z,7.00
2023-01-22T00:58:42.907Z,10.60
2023-01-22T01:03:14.546Z,11.38
2023-01-22T01:07:27.415Z,9.00
2023-01-22T01:11:41.681Z,9.27
2023-01-22T01:16:06.313Z,6.68
2023-01-22T01:20:18.941Z,7.13
2023-01-22T01:24:32.534Z,7.03
2023-01-22T01:28:46.043Z,5.85
2023-01-22T01:33:01.579Z,6.60
2023-01-22T01:37:13.942Z,7.07
2023-01-22T01:41:27.534Z,7.72
2023-01-22T01:45:40.083Z,7.93
2023-01-22T01:49:54.113Z,7.05
2023-01-22T01:54:08.231Z,8.73
2023-01-22T01:58:24.114Z,5.93
2023-01-22T02:02:38.069Z,9.93
2023-01-22T02:06:50.432Z,9.30
2023-01-22T02:11:02.849Z,6.65
2023-01-22T02:15:15.329Z,5.93
2023-01-22T02:19:36.796Z,6.97
2023-01-22T02:23:49.709Z,6.50
2023-01-22T02:28:02.175Z,5.88
2023-01-22T02:32:14.750Z,6.20
2023-01-22T02:36:27.985Z,6.18
2023-01-22T02:40:49.547Z,7.05
2023-01-22T02:45:05.275Z,7.13
2023-01-22T02:49:18.916Z,9.30
2023-01-22T02:53:33.831Z,5.78
2023-01-22T02:57:49.202Z,5.75
2023-01-22T03:02:02.196Z,7.43
2023-01-22T03:06:16.183Z,8.38
2023-01-22T03:10:28.537Z,6.55
2023-01-22T03:14:59.951Z,7.10
2023-01-22T03:19:32.573Z,7.65
2023-01-22T03:23:47.427Z,5.65
2023-01-22T03:28:16.814Z,5.35
2023-01-22T03:32:35.014Z,6.53
2023-01-22T03:36:48.719Z,6.53
2023-01-22T03:41:21.568Z,7.93
2023-01-22T03:45:35.828Z,6.85
2023-01-22T03:49:50.106Z,6.10
2023-01-22T03:54:03.047Z,6.18
2023-01-22T03:58:15.508Z,4.88
2023-01-22T04:02:31.503Z,4.78
2023-01-22T04:06:56.932Z,6.93
2023-01-22T04:11:09.844Z,10.82
2023-01-22T04:15:22.866Z,5.88
2023-01-22T04:19:36.723Z,7.00
2023-01-22T04:23:49.021Z,6.53
2023-01-22T04:28:02.164Z,6.20
2023-01-22T04:32:19.811Z,6.53
2023-01-22T04:36:38.622Z,6.18
2023-01-22T04:40:51.842Z,5.50
2023-01-22T04:45:04.843Z,6.45
2023-01-22T04:49:17.823Z,7.63
2023-01-22T04:53:32.180Z,6.03
2023-01-22T04:57:46.637Z,7.47
2023-01-22T05:01:59.766Z,9.00
2023-01-22T05:06:14.531Z,8.73
2023-01-22T05:10:30.580Z,5.05
2023-01-22T05:14:43.306Z,5.30
2023-01-22T05:18:56.593Z,4.85
2023-01-22T05:23:13.880Z,4.90
2023-01-22T05:27:30.179Z,5.05
2023-01-22T05:31:56.319Z,5.97
2023-01-22T05:36:18.168Z,7.05
2023-01-22T05:40:30.796Z,6.05
2023-01-22T05:44:43.568Z,7.80
2023-01-22T05:48:58.404Z,5.75
2023-01-22T05:53:12.377Z,7.88
2023-01-22T05:57:24.685Z,5.10
2023-01-22T06:01:37.067Z,6.20
2023-01-22T06:05:59.965Z,7.85
2023-01-22T06:10:12.613Z,11.05
2023-01-22T06:14:30.650Z,9.05
2023-01-22T06:18:44.952Z,8.60
2023-01-22T06:22:59.824Z,10.38
2023-01-22T06:27:15.451Z,6.65
2023-01-22T06:31:41.257Z,8.50
2023-01-22T06:35:56.744Z,6.88
2023-01-22T06:40:11.805Z,6.32
2023-01-22T06:44:30.441Z,7.63
2023-01-22T06:48:44.812Z,8.98
2023-01-22T06:52:57.349Z,13.43
2023-01-22T06:57:09.755Z,12.05
2023-01-22T07:01:24.270Z,11.38
2023-01-22T07:05:36.687Z,7.72
2023-01-22T07:09:49.138Z,11.45
2023-01-22T07:14:01.450Z,8.70
2023-01-22T07:18:14.941Z,11.77
2023-01-22T07:22:27.477Z,9.00
2023-01-22T07:26:41.229Z,8.88
2023-01-22T07:30:53.677Z,7.18
2023-01-22T07:35:06.359Z,6.78
2023-01-22T07:39:19.909Z,9.30
2023-01-22T07:43:32.859Z,6.38
2023-01-22T07:48:07.962Z,6.53
2023-01-22T07:52:20.245Z,5.85
2023-01-22T07:56:32.554Z,4.75
2023-01-22T08:00:45.010Z,9.57
2023-01-22T08:04:57.460Z,4.75
2023-01-22T08:09:09.801Z,8.13
2023-01-22T08:13:25.418Z,5.03
2023-01-22T08:17:39.036Z,8.25
2023-01-22T08:21:52.594Z,6.05
2023-01-22T08:26:06.181Z,8.32
2023-01-22T08:30:19.162Z,8.60
2023-01-22T08:34:33.310Z,8.88
2023-01-22T08:38:45.842Z,6.47
2023-01-22T08:42:58.309Z,8.77
2023-01-22T08:47:11.823Z,7.82
2023-01-22T08:51:25.357Z,8.80
2023-01-22T08:55:38.106Z,5.68
2023-01-22T09:00:00.785Z,8.40
2023-01-22T09:04:13.824Z,7.68
2023-01-22T09:08:26.357Z,7.55
2023-01-22T09:12:40.091Z,8.07
2023-01-22T09:16:59.013Z,7.25
2023-01-22T09:21:12.091Z,6.00
2023-01-22T09:25:27.404Z,5.82
2023-01-22T09:29:41.691Z,4.78
2023-01-22T09:33:55.883Z,5.43
2023-01-22T09:38:12.863Z,3.85
2023-01-22T09:42:32.433Z,4.72
2023-01-22T09:46:59.433Z,5.35
2023-01-22T09:51:16.961Z,7.28
2023-01-22T09:55:32.609Z,7.93
2023-01-22T09:59:51.334Z,5.03
2023-01-22T10:04:08.112Z,4.72
2023-01-22T10:08:23.959Z,9.82
2023-01-22T10:12:36.411Z,4.68
2023-01-22T10:16:49.429Z,8.60
2023-01-22T10:21:07.319Z,5.32
2023-01-22T10:25:19.727Z,5.03
2023-01-22T10:29:34.700Z,4.78
2023-01-22T10:33:47.222Z,4.05
2023-01-22T10:38:01.246Z,5.47
2023-01-22T10:42:18.850Z,4.25
2023-01-22T10:46:31.402Z,6.70
2023-01-22T10:50:45.423Z,8.82
2023-01-22T10:55:01.051Z,37.90
2023-01-22T10:59:23.334Z,15.90
2023-01-22T11:03:40.019Z,4.03
2023-01-22T11:08:06.252Z,4.85
2023-01-22T11:12:30.331Z,5.75
2023-01-22T11:16:45.944Z,3.90
2023-01-22T11:21:01.001Z,5.60
2023-01-22T11:25:13.594Z,7.07
2023-01-22T11:30:06.312Z,7.03
2023-01-22T11:34:33.718Z,6.95
2023-01-22T11:39:38.718Z,9.00
2023-01-22T11:44:15.320Z,8.38
2023-01-22T11:48:45.228Z,7.13
2023-01-22T11:53:26.814Z,6.28
2023-01-22T11:57:46.755Z,5.38
2023-01-22T12:06:46.441Z,8.48
2023-01-22T12:11:37.441Z,5.38
2023-01-22T12:15:58.982Z,5.47
2023-01-22T12:20:34.391Z,5.50
2023-01-22T12:25:10.826Z,10.02
2023-01-22T12:29:29.902Z,9.55
2023-01-22T12:33:44.505Z,7.63
2023-01-22T12:38:19.497Z,6.72
2023-01-22T12:42:41.020Z,7.88
2023-01-22T12:47:09.798Z,9.55
2023-01-22T12:51:47.347Z,10.38
2023-01-22T12:56:02.836Z,11.38
2023-01-22T13:00:35.654Z,10.60
2023-01-22T13:04:48.166Z,8.45
2023-01-22T13:09:01.001Z,11.13
2023-01-22T13:13:13.282Z,17.25
2023-01-22T13:17:30.756Z,18.92
2023-01-22T13:21:44.102Z,11.23
2023-01-22T13:25:57.899Z,12.93
2023-01-22T13:30:23.708Z,10.55
2023-01-22T13:34:36.171Z,16.30
2023-01-22T13:38:53.802Z,15.50
2023-01-22T13:43:07.823Z,14.52
2023-01-22T13:47:35.118Z,18.42
2023-01-22T13:51:50.698Z,15.77
2023-01-22T13:56:03.309Z,18.92
2023-01-22T14:00:30.809Z,25.73
2023-01-22T14:04:43.175Z,30.70
2023-01-22T14:08:57.823Z,26.85
2023-01-22T14:13:12.543Z,21.17
2023-01-22T14:17:30.685Z,21.55
2023-01-22T14:21:43.295Z,23.73
2023-01-22T14:25:56.957Z,24.67
2023-01-22T14:30:11.178Z,23.92
2023-01-22T14:34:23.568Z,29.55
2023-01-22T14:38:35.977Z,29.05
2023-01-22T14:42:48.771Z,27.08
2023-01-22T14:47:01.217Z,24.27
2023-01-22T14:51:13.825Z,23.05
2023-01-22T14:55:26.348Z,25.40
2023-01-22T14:59:38.676Z,18.88
2023-01-22T15:03:51.201Z,16.73
2023-01-22T15:08:03.957Z,15.13
2023-01-22T15:12:16.308Z,16.60
2023-01-22T15:16:29.054Z,18.63
2023-01-22T15:20:41.483Z,15.80
2023-01-22T15:24:53.974Z,21.48
2023-01-22T15:29:09.442Z,19.02
2023-01-22T15:33:21.855Z,18.52
2023-01-22T15:37:34.412Z,20.45
2023-01-22T15:41:47.472Z,19.33
2023-01-22T15:46:00.017Z,20.33
2023-01-22T15:50:14.349Z,23.20
2023-01-22T15:54:27.284Z,24.80
2023-01-22T15:58:39.721Z,23.63
2023-01-22T16:02:52.099Z,25.08
2023-01-22T16:07:04.684Z,29.98
2023-01-22T16:11:17.678Z,25.58
2023-01-22T16:15:29.999Z,34.72
2023-01-22T16:19:42.815Z,31.85
2023-01-22T16:23:57.701Z,31.30
2023-01-22T16:28:10.313Z,42.08
2023-01-22T16:32:23.794Z,36.50
2023-01-22T16:36:37.035Z,28.58
2023-01-22T16:40:50.402Z,31.13
2023-01-22T16:45:03.165Z,31.33
2023-01-22T16:49:21.670Z,35.38
2023-01-22T16:53:35.771Z,23.90
2023-01-22T16:57:51.419Z,28.05
2023-01-22T17:02:07.888Z,29.75
2023-01-22T17:06:44.714Z,31.80
2023-01-22T17:10:57.226Z,44.95
2023-01-22T17:15:10.158Z,46.28
2023-01-22T17:19:23.231Z,47.60
2023-01-22T17:23:35.603Z,37.95
2023-01-22T17:27:47.913Z,34.50
2023-01-22T17:32:00.517Z,33.88
2023-01-22T17:36:15.289Z,33.50
2023-01-22T17:40:27.885Z,35.13
2023-01-22T17:44:46.412Z,33.25
2023-01-22T17:49:01.319Z,42.05
2023-01-22T17:53:13.719Z,35.22
2023-01-22T17:57:26.205Z,38.88
2023-01-22T18:01:39.615Z,33.00
2023-01-22T18:05:54.895Z,33.70
2023-01-22T18:10:07.442Z,30.45
2023-01-22T18:14:23.079Z,36.38
2023-01-22T18:18:35.852Z,34.70
2023-01-22T18:22:49.296Z,32.72
2023-01-22T18:27:02.528Z,35.67
2023-01-22T18:31:17.041Z,39.22
2023-01-22T18:35:29.857Z,47.28
2023-01-22T18:39:42.424Z,40.78
2023-01-22T18:43:57.287Z,36.50
2023-01-22T18:48:13.085Z,41.67
2023-01-22T18:52:27.507Z,46.88
2023-01-22T18:56:40.271Z,45.20
2023-01-22T19:00:52.675Z,42.58
2023-01-22T19:05:07.736Z,41.60
2023-01-22T19:09:21.130Z,44.95
2023-01-22T19:13:39.788Z,44.53
2023-01-22T19:17:52.179Z,40.38
2023-01-22T19:22:04.668Z,42.55
2023-01-22T19:26:28.930Z,40.78
2023-01-22T19:30:41.378Z,39.78
2023-01-22T19:34:57.915Z,39.75
2023-01-22T19:39:13.264Z,40.03
2023-01-22T19:43:26.487Z,37.17
2023-01-22T19:47:39.184Z,41.13
2023-01-22T19:51:51.581Z,46.25
2023-01-22T19:56:05.823Z,45.00
2023-01-22T20:00:20.085Z,46.70
2023-01-22T20:04:36.184Z,31.27
2023-01-22T20:08:53.602Z,11.07
2023-01-22T20:13:09.890Z,6.72
2023-01-22T20:17:22.346Z,3.53
2023-01-22T20:21:35.714Z,4.22
2023-01-22T20:25:49.005Z,5.63
2023-01-22T20:30:02.616Z,6.18
2023-01-22T20:34:15.138Z,3.78
2023-01-22T20:38:29.070Z,5.65
2023-01-22T20:42:41.492Z,5.30
2023-01-22T20:46:54.481Z,5.00
2023-01-22T20:51:15.337Z,5.60
2023-01-22T20:55:28.408Z,4.40
2023-01-22T20:59:40.786Z,4.22
2023-01-22T21:03:54.084Z,4.85
2023-01-22T21:08:07.119Z,4.18
2023-01-22T21:12:19.911Z,3.92
2023-01-22T21:16:36.266Z,4.18
2023-01-22T21:20:49.234Z,2.92
2023-01-22T21:25:02.132Z,5.38
2023-01-22T21:29:17.420Z,3.78
2023-01-22T21:33:29.891Z,6.30
2023-01-22T21:37:42.428Z,4.00
2023-01-22T21:42:14.308Z,2.95
2023-01-22T21:46:28.385Z,6.28
2023-01-22T21:50:42.358Z,6.00
2023-01-22T21:54:54.824Z,5.40
2023-01-22T21:59:07.290Z,5.60
2023-01-22T22:03:19.679Z,6.35
2023-01-22T22:07:32.142Z,4.70
2023-01-22T22:11:45.473Z,2.58
2023-01-22T22:16:05.424Z,3.67
2023-01-22T22:24:30.742Z,5.47
2023-01-22T22:28:43.260Z,2.08
2023-01-22T22:32:55.770Z,4.22
2023-01-22T22:37:08.206Z,1.92
2023-01-22T22:41:26.407Z,2.42
2023-01-22T22:45:39.164Z,2.28
2023-01-22T22:49:51.573Z,2.53
2023-01-22T22:54:12.838Z,2.78
2023-01-22T22:58:25.185Z,2.17
2023-01-22T23:02:37.811Z,1.40
2023-01-22T23:06:50.245Z,1.73
2023-01-22T23:11:04.761Z,2.67
2023-01-22T23:15:17.198Z,3.20
2023-01-22T23:19:29.620Z,3.58
2023-01-22T23:23:42.943Z,3.63
2023-01-22T23:27:56.063Z,1.60
2023-01-22T23:32:08.456Z,2.53
2023-01-22T23:36:21.430Z,1.63
2023-01-22T23:40:37.153Z,0.82
2023-01-22T23:44:51.809Z,2.08
2023-01-22T23:49:05.494Z,0.98
2023-01-22T23:53:18.181Z,1.60
2023-01-22T23:57:30.636Z,0.90
